Time;durP1;ratioP1;P1;durP2;ratioP2;P2;SDS_P1;SDS_P2;PMS_P1;PMS_P2;Temp;Humidity;BMP_temperature;BMP_pressure;BME280_temperature;BME280_humidity;BME280_pressure;Samples;Min_cycle;Max_cycle;Signal;HPM_P1;HPM_P2
2022/04/17 00:02:00;;;;;;;13.50;7.10;;;2.90;99.90;;;;;;10372349;28;20045;-80
2022/04/17 00:07:01;;;;;;;18.13;7.33;;;2.90;99.90;;;;;;10372232;28;20034;-80
2022/04/17 00:12:01;;;;;;;20.43;7.80;;;2.80;99.90;;;;;;10365650;28;20409;-79
2022/04/17 00:17:03;;;;;;;18.80;7.57;;;2.70;99.90;;;;;;10372848;28;20036;-79
2022/04/17 00:22:03;;;;;;;15.80;7.13;;;2.60;99.90;;;;;;10361545;28;20117;-80
2022/04/17 00:27:04;;;;;;;24.47;8.57;;;2.50;99.90;;;;;;10348744;28;20101;-79
2022/04/17 00:32:05;;;;;;;17.20;7.43;;;2.40;99.90;;;;;;10371113;28;20068;-80
2022/04/17 00:37:06;;;;;;;20.43;8.07;;;2.40;99.90;;;;;;10370215;28;20022;-79
2022/04/17 00:42:09;;;;;;;19.77;8.67;;;2.40;99.90;;;;;;10360757;28;20045;-82
2022/04/17 00:47:14;;;;;;;19.30;8.07;;;2.20;99.90;;;;;;10368078;28;20080;-81
2022/04/17 00:52:16;;;;;;;15.27;7.57;;;2.10;99.90;;;;;;10371562;28;20140;-79
2022/04/17 00:57:17;;;;;;;20.77;7.83;;;1.90;99.90;;;;;;10370727;28;20036;-78
2022/04/17 01:02:17;;;;;;;15.77;7.73;;;1.70;99.90;;;;;;10369989;28;20116;-78
2022/04/17 01:07:22;;;;;;;21.57;8.07;;;1.70;99.90;;;;;;10371040;28;20539;-80
2022/04/17 01:12:23;;;;;;;16.60;7.97;;;1.50;99.90;;;;;;10349720;28;20387;-79
2022/04/17 01:17:23;;;;;;;17.87;7.57;;;1.60;99.90;;;;;;10351892;23;20070;-81
2022/04/17 01:22:25;;;;;;;20.37;9.47;;;1.60;99.90;;;;;;10357032;28;20080;-81
2022/04/17 01:27:26;;;;;;;23.63;8.90;;;1.50;99.90;;;;;;10368643;28;20173;-81
2022/04/17 01:32:27;;;;;;;18.70;8.10;;;1.30;99.90;;;;;;10368274;28;20351;-81
2022/04/17 01:37:27;;;;;;;16.27;7.90;;;1.30;99.90;;;;;;10358884;28;20113;-82
2022/04/17 01:42:28;;;;;;;20.07;8.40;;;1.20;99.90;;;;;;10329339;28;20034;-80
2022/04/17 01:47:30;;;;;;;18.87;8.73;;;1.10;99.90;;;;;;10328130;28;20043;-80
2022/04/17 01:52:30;;;;;;;19.17;8.30;;;1.10;99.90;;;;;;10329198;28;20030;-80
2022/04/17 01:57:31;;;;;;;16.47;7.90;;;1.20;99.90;;;;;;10328570;28;20034;-80
2022/04/17 02:02:32;;;;;;;18.10;9.07;;;1.20;99.90;;;;;;10327166;28;20030;-82
2022/04/17 02:07:32;;;;;;;16.23;8.50;;;1.10;99.90;;;;;;10327839;28;20426;-80
2022/04/17 02:12:34;;;;;;;16.17;7.57;;;1.10;99.90;;;;;;10327737;28;20034;-81
2022/04/17 02:17:37;;;;;;;19.27;8.80;;;1.00;99.90;;;;;;10327674;28;20052;-81
2022/04/17 02:22:39;;;;;;;18.87;9.30;;;0.90;99.90;;;;;;10326794;28;20038;-80
2022/04/17 02:27:40;;;;;;;19.00;8.73;;;0.90;99.90;;;;;;10327290;28;20042;-80
2022/04/17 02:32:40;;;;;;;19.23;9.20;;;0.90;99.90;;;;;;10326524;28;20042;-81
2022/04/17 02:37:41;;;;;;;17.53;8.47;;;0.80;99.90;;;;;;10325886;28;20042;-81
2022/04/17 02:42:43;;;;;;;18.93;9.13;;;0.80;99.90;;;;;;10327066;28;20440;-81
2022/04/17 02:47:43;;;;;;;20.27;9.50;;;0.70;99.90;;;;;;10326669;28;20034;-81
2022/04/17 02:52:45;;;;;;;17.40;8.53;;;0.70;99.90;;;;;;10324276;28;20540;-79
2022/04/17 02:57:45;;;;;;;18.23;9.13;;;0.60;99.90;;;;;;10342016;28;20023;-82
2022/04/17 03:08:09;;;;;;;21.47;8.73;;;0.60;99.90;;;;;;10363918;23;20144;-82
2022/04/17 03:13:10;;;;;;;19.30;8.97;;;0.50;99.90;;;;;;10363961;28;20029;-80
2022/04/17 03:18:11;;;;;;;16.53;8.37;;;0.60;99.90;;;;;;10401478;28;20036;-82
2022/04/17 03:23:12;;;;;;;17.30;9.07;;;0.60;99.90;;;;;;10389203;28;20436;-81
2022/04/17 03:28:13;;;;;;;16.80;8.53;;;0.70;99.90;;;;;;10406803;28;20038;-81
2022/04/17 03:33:14;;;;;;;17.67;9.50;;;0.60;99.90;;;;;;10406793;28;20415;-81
2022/04/17 03:38:14;;;;;;;17.87;9.50;;;0.60;99.90;;;;;;10390697;28;20030;-80
2022/04/17 03:43:15;;;;;;;20.77;10.17;;;0.70;99.90;;;;;;10366331;28;20026;-79
2022/04/17 03:48:18;;;;;;;27.20;10.97;;;0.70;99.90;;;;;;10369396;28;20090;-80
2022/04/17 03:53:18;;;;;;;20.87;10.67;;;0.80;99.90;;;;;;10372906;28;20438;-78
2022/04/17 03:58:19;;;;;;;24.23;10.77;;;0.90;99.90;;;;;;10372734;28;20037;-80
2022/04/17 04:03:20;;;;;;;23.63;10.30;;;0.90;99.90;;;;;;10346560;28;20045;-81
2022/04/17 04:08:21;;;;;;;23.50;11.37;;;0.90;99.90;;;;;;10386156;28;20053;-79
2022/04/17 04:13:22;;;;;;;21.00;11.33;;;1.00;99.90;;;;;;10413956;28;20482;-80
2022/04/17 04:18:23;;;;;;;21.07;9.77;;;1.10;99.90;;;;;;10409147;28;20037;-79
2022/04/17 04:23:24;;;;;;;25.20;11.20;;;1.30;99.90;;;;;;10394096;28;20068;-80
2022/04/17 04:28:33;;;;;;;25.37;11.73;;;1.30;99.90;;;;;;10400874;28;20059;-80
2022/04/17 04:33:35;;;;;;;24.73;11.53;;;1.30;99.90;;;;;;10415169;28;20521;-79
2022/04/17 04:38:36;;;;;;;23.90;12.37;;;1.40;99.90;;;;;;10399047;28;20026;-80
2022/04/17 04:43:36;;;;;;;27.60;12.00;;;1.50;99.90;;;;;;10400162;28;20030;-83
2022/04/17 04:53:59;;;;;;;28.73;13.00;;;1.70;99.90;;;;;;10400033;28;20477;-79
2022/04/17 04:58:59;;;;;;;21.40;11.77;;;1.90;99.90;;;;;;10408148;28;20041;-82
2022/04/17 05:04:00;;;;;;;21.87;11.23;;;2.00;99.90;;;;;;10387430;28;20532;-80
2022/04/17 05:09:00;;;;;;;24.17;12.40;;;2.20;99.90;;;;;;10403874;28;20057;-80
2022/04/17 05:14:01;;;;;;;23.07;11.20;;;2.30;99.90;;;;;;10410573;28;20036;-83
2022/04/17 05:24:21;;;;;;;22.03;10.97;;;2.50;99.90;;;;;;10411034;28;20042;-79
2022/04/17 05:29:21;;;;;;;22.30;10.43;;;2.60;99.90;;;;;;10411395;28;20034;-79
2022/04/17 05:34:22;;;;;;;15.73;9.20;;;2.60;99.90;;;;;;10387112;28;20057;-79
2022/04/17 05:39:23;;;;;;;19.90;9.97;;;2.70;99.90;;;;;;10392842;28;20018;-79
2022/04/17 05:44:23;;;;;;;23.03;11.27;;;2.80;99.90;;;;;;10394099;28;20048;-81
2022/04/17 05:49:24;;;;;;;24.00;10.43;;;2.90;99.90;;;;;;10380452;28;20116;-79
2022/04/17 05:54:25;;;;;;;20.33;9.90;;;3.00;99.90;;;;;;10372228;28;20022;-82
2022/04/17 05:59:26;;;;;;;17.30;10.13;;;3.00;99.90;;;;;;10369216;28;20497;-82
2022/04/17 06:04:27;;;;;;;18.50;9.93;;;3.20;99.90;;;;;;10405483;28;20037;-79
2022/04/17 06:09:27;;;;;;;20.17;10.70;;;3.30;99.90;;;;;;10409174;28;20057;-79
2022/04/17 06:14:28;;;;;;;21.17;11.07;;;3.50;99.90;;;;;;10408737;28;20017;-83
2022/04/17 06:19:28;;;;;;;19.30;10.47;;;3.60;99.90;;;;;;10410164;28;20056;-79
2022/04/17 06:24:29;;;;;;;20.37;10.67;;;3.80;99.90;;;;;;10402219;28;20034;-80
2022/04/17 06:29:30;;;;;;;22.80;11.60;;;3.90;99.90;;;;;;10392976;28;20065;-79
2022/04/17 06:34:31;;;;;;;20.27;11.30;;;3.90;99.90;;;;;;10389443;28;20029;-79
2022/04/17 06:39:31;;;;;;;21.53;10.50;;;4.00;99.90;;;;;;10388462;28;20034;-82
2022/04/17 06:44:32;;;;;;;22.40;11.37;;;4.40;99.90;;;;;;10379523;28;20018;-84
2022/04/17 06:49:33;;;;;;;21.90;10.47;;;4.80;99.90;;;;;;10388698;28;20037;-81
2022/04/17 06:54:33;;;;;;;23.97;11.80;;;4.80;99.90;;;;;;10387303;28;20038;-84
2022/04/17 06:59:34;;;;;;;21.90;11.20;;;4.90;99.90;;;;;;10392638;28;20017;-83
2022/04/17 07:04:34;;;;;;;22.23;11.47;;;5.10;99.90;;;;;;10404818;28;20033;-81
2022/04/17 07:09:35;;;;;;;23.33;11.30;;;5.20;99.90;;;;;;10405075;28;20049;-81
2022/04/17 07:14:36;;;;;;;19.07;10.53;;;5.20;99.90;;;;;;10404305;28;20040;-82
2022/04/17 07:19:37;;;;;;;20.80;10.37;;;5.40;99.90;;;;;;10405266;28;20083;-81
2022/04/17 07:24:39;;;;;;;15.67;8.70;;;5.30;99.90;;;;;;10411582;28;20032;-82
2022/04/17 07:29:40;;;;;;;16.07;8.37;;;5.60;99.90;;;;;;10398639;28;20737;-81
2022/04/17 07:34:40;;;;;;;22.50;10.60;;;6.20;99.90;;;;;;10396886;28;20021;-82
2022/04/17 07:39:43;;;;;;;9.63;5.60;;;6.70;99.90;;;;;;10414748;28;20045;-82
2022/04/17 07:44:44;;;;;;;9.40;4.10;;;7.10;94.50;;;;;;10415273;28;20026;-82
2022/04/17 07:49:45;;;;;;;15.47;8.30;;;7.50;90.00;;;;;;10396966;28;20507;-82
2022/04/17 07:54:47;;;;;;;6.40;3.90;;;7.90;90.50;;;;;;10396970;28;20033;-80
2022/04/17 07:59:50;;;;;;;5.83;3.70;;;8.00;82.40;;;;;;10414641;28;20032;-80
2022/04/17 08:04:51;;;;;;;8.93;4.80;;;8.20;84.60;;;;;;10414517;28;20025;-82
2022/04/17 08:09:52;;;;;;;5.30;3.07;;;8.50;80.30;;;;;;10414599;28;20565;-82
2022/04/17 08:14:53;;;;;;;5.10;3.20;;;8.70;76.60;;;;;;10396198;28;20038;-81
2022/04/17 08:19:53;;;;;;;6.20;3.43;;;9.00;74.80;;;;;;10395764;28;20021;-81
2022/04/17 08:24:54;;;;;;;6.20;3.57;;;9.00;75.60;;;;;;10413446;28;20018;-82
2022/04/17 08:29:55;;;;;;;4.00;2.80;;;9.70;69.90;;;;;;10412929;28;20029;-81
2022/04/17 08:34:55;;;;;;;3.77;2.77;;;9.90;69.20;;;;;;10412205;28;20025;-82
2022/04/17 08:39:56;;;;;;;4.57;2.80;;;10.00;63.90;;;;;;10412903;28;20025;-82
2022/04/17 08:44:56;;;;;;;3.63;2.60;;;9.90;63.10;;;;;;10412646;28;20029;-82
2022/04/17 08:49:58;;;;;;;8.27;3.30;;;10.10;65.50;;;;;;10412349;28;20037;-83
2022/04/17 08:55:00;;;;;;;5.00;2.77;;;9.70;63.10;;;;;;10412223;28;20029;-82
2022/04/17 09:00:04;;;;;;;6.90;3.50;;;9.00;61.50;;;;;;10412579;28;20029;-82
2022/04/17 09:05:06;;;;;;;5.07;2.70;;;9.70;65.30;;;;;;10411765;28;20025;-82
2022/04/17 09:10:07;;;;;;;4.63;2.70;;;9.40;63.30;;;;;;10411672;28;20111;-82
2022/04/17 09:15:09;;;;;;;8.17;4.50;;;9.20;62.60;;;;;;10411875;28;20570;-82
2022/04/17 09:20:19;;;;;;;6.63;3.17;;;9.10;67.80;;;;;;10411392;28;20032;-83
2022/04/17 09:25:25;;;;;;;5.03;2.90;;;9.90;65.00;;;;;;10411569;28;20124;-82
2022/04/17 09:30:32;;;;;;;6.33;2.87;;;9.40;61.50;;;;;;10393099;28;20045;-82
2022/04/17 09:35:33;;;;;;;4.93;2.60;;;8.90;65.80;;;;;;10410914;28;20037;-82
2022/04/17 09:40:36;;;;;;;3.90;2.60;;;9.20;64.80;;;;;;10410231;28;20469;-82
2022/04/17 09:45:59;;;;;;;5.27;2.90;;;8.90;63.80;;;;;;10410839;28;20527;-82
2022/04/17 09:51:01;;;;;;;5.43;2.70;;;8.70;65.60;;;;;;10410325;28;20045;-83
2022/04/17 09:56:10;;;;;;;14.03;7.50;;;8.70;65.60;;;;;;10409901;28;20401;-82
2022/04/17 10:01:18;;;;;;;5.72;2.75;;;9.90;72.50;;;;;;10392063;28;20033;-82
2022/04/17 10:06:19;;;;;;;3.37;2.50;;;10.50;64.20;;;;;;10409440;28;20044;-82
2022/04/17 10:11:20;;;;;;;3.83;2.40;;;9.80;62.10;;;;;;10410262;28;20053;-83
2022/04/17 10:16:22;;;;;;;3.47;2.42;;;9.60;64.40;;;;;;10409078;28;20022;-81
2022/04/17 10:21:28;;;;;;;3.43;2.20;;;10.50;66.20;;;;;;10408945;28;20029;-81
2022/04/17 10:26:36;;;;;;;3.47;2.30;;;10.60;59.90;;;;;;10409263;28;20477;-82
2022/04/17 10:32:03;;;;;;;6.05;3.40;;;10.70;60.70;;;;;;10408742;28;20037;-82
2022/04/17 10:37:21;;;;;;;4.15;1.90;;;11.30;63.00;;;;;;10367382;28;20038;-82
2022/04/17 10:42:23;;;;;;;3.05;2.42;;;12.20;57.50;;;;;;10408959;28;20022;-82
2022/04/17 10:47:25;;;;;;;4.22;2.22;;;11.60;56.60;;;;;;10408211;28;20112;-82
2022/04/17 10:52:31;;;;;;;2.83;2.08;;;10.90;58.10;;;;;;10408165;28;20042;-82
2022/04/17 10:57:41;;;;;;;;;;;10.50;62.20;;;;;;10414459;28;20112;-82
2022/04/17 11:02:42;;;;;;;5.78;2.63;;;10.50;58.90;;;;;;10421838;28;19970;-83
2022/04/17 11:07:45;;;;;;;4.47;2.40;;;10.10;59.70;;;;;;10421770;28;20053;-82
2022/04/17 11:12:50;;;;;;;4.57;2.50;;;9.90;59.70;;;;;;10422307;28;20040;-82
2022/04/17 11:17:51;;;;;;;2.72;2.35;;;10.10;61.30;;;;;;10421529;28;20025;-82
2022/04/17 11:22:52;;;;;;;4.22;2.38;;;10.20;59.00;;;;;;10421646;28;20044;-82
2022/04/17 11:27:53;;;;;;;3.97;2.92;;;10.60;63.60;;;;;;10421386;28;20033;-81
2022/04/17 11:32:56;;;;;;;4.88;2.58;;;12.00;62.90;;;;;;10420874;28;20034;-82
2022/04/17 11:38:01;;;;;;;4.28;2.65;;;12.40;58.50;;;;;;10421227;28;20056;-82
2022/04/17 11:43:21;;;;;;;5.45;2.90;;;12.00;57.20;;;;;;10421075;28;20029;-82
2022/04/17 11:48:29;;;;;;;3.92;2.63;;;11.20;58.00;;;;;;10420644;28;20029;-82
2022/04/17 11:53:32;;;;;;;4.85;2.63;;;11.00;60.70;;;;;;10421463;28;20025;-82
2022/04/17 11:58:32;;;;;;;5.32;2.58;;;10.90;60.00;;;;;;10420939;28;20029;-81
2022/04/17 12:03:38;;;;;;;3.00;1.95;;;10.70;61.40;;;;;;10420686;28;20465;-82
2022/04/17 12:08:40;;;;;;;2.53;1.70;;;10.20;59.70;;;;;;10418397;28;20128;-83
2022/04/17 12:13:41;;;;;;;3.10;2.20;;;10.40;62.90;;;;;;10413988;28;20026;-82
2022/04/17 12:18:52;;;;;;;3.80;2.15;;;10.40;60.80;;;;;;10413693;28;20116;-81
2022/04/17 12:23:54;;;;;;;3.35;2.42;;;10.40;61.00;;;;;;10396042;28;20124;-81
2022/04/17 12:28:54;;;;;;;3.17;2.13;;;10.20;61.70;;;;;;10413346;28;20076;-81
2022/04/17 12:34:23;;;;;;;2.53;1.90;;;10.00;61.40;;;;;;10413599;28;20080;-83
2022/04/17 12:39:32;;;;;;;3.70;2.37;;;9.70;62.60;;;;;;10410355;28;20080;-82
2022/04/17 12:44:36;;;;;;;6.40;3.70;;;9.70;62.50;;;;;;10412416;28;20031;-82
2022/04/17 12:49:37;;;;;;;3.87;2.30;;;10.00;63.60;;;;;;10412655;28;20091;-81
2022/04/17 12:54:37;;;;;;;11.38;5.07;;;11.10;66.40;;;;;;10412514;28;20109;-82
2022/04/17 12:59:47;;;;;;;6.28;2.25;;;12.30;62.00;;;;;;10412438;28;20026;-83
2022/04/17 13:04:53;;;;;;;3.10;2.03;;;12.50;58.80;;;;;;10412509;28;20453;-81
2022/04/17 13:09:54;;;;;;;4.15;2.00;;;11.80;56.90;;;;;;10412383;28;20141;-82
2022/04/17 13:14:57;;;;;;;3.95;2.30;;;11.40;59.60;;;;;;10411445;28;20036;-80
2022/04/17 13:19:59;;;;;;;2.53;1.80;;;10.80;59.20;;;;;;10410435;28;20370;-82
2022/04/17 13:25:01;;;;;;;3.17;1.88;;;10.40;60.10;;;;;;10405797;28;20059;-82
2022/04/17 13:30:04;;;;;;;3.92;2.20;;;10.70;61.70;;;;;;10389638;28;20923;-82
2022/04/17 13:35:06;;;;;;;3.17;1.70;;;11.20;61.70;;;;;;10394054;28;20022;-82
2022/04/17 13:40:07;;;;;;;2.80;1.77;;;11.90;58.40;;;;;;10399758;28;20032;-82
2022/04/17 13:45:09;;;;;;;4.18;2.20;;;12.10;56.70;;;;;;10404005;28;20061;-81
2022/04/17 13:50:10;;;;;;;3.38;2.10;;;12.00;58.40;;;;;;10386516;28;20047;-81
2022/04/17 13:55:12;;;;;;;66.78;30.30;;;11.60;58.30;;;;;;10392179;28;20025;-80
2022/04/17 14:00:13;;;;;;;18.98;8.77;;;11.40;58.90;;;;;;10381802;28;20661;-81
2022/04/17 14:05:14;;;;;;;11.02;5.95;;;11.50;59.40;;;;;;10378305;28;20030;-81
2022/04/17 14:10:15;;;;;;;141.45;80.40;;;11.70;58.10;;;;;;10338054;28;20042;-80
2022/04/17 14:15:15;;;;;;;46.30;20.55;;;11.90;57.80;;;;;;10339228;28;20041;-81
2022/04/17 14:20:16;;;;;;;155.45;74.47;;;11.30;57.30;;;;;;10345912;28;20044;-83
2022/04/17 14:25:18;;;;;;;630.35;361.02;;;10.70;56.60;;;;;;10352538;28;20030;-81
2022/04/17 14:30:18;;;;;;;241.63;125.23;;;10.20;58.10;;;;;;10353924;28;20402;-81
2022/04/17 14:35:19;;;;;;;181.60;96.33;;;10.20;60.70;;;;;;10353235;28;20041;-80
2022/04/17 14:40:20;;;;;;;9.70;5.03;;;10.00;59.30;;;;;;10354118;28;20038;-82
2022/04/17 14:45:25;;;;;;;62.63;41.10;;;10.10;59.70;;;;;;10341060;28;20018;-82
2022/04/17 14:50:26;;;;;;;11.52;6.43;;;10.30;59.00;;;;;;10347548;28;20061;-80
2022/04/17 14:55:27;;;;;;;11.30;7.27;;;10.20;59.40;;;;;;10345280;28;20113;-80
2022/04/17 15:00:28;;;;;;;6.40;4.63;;;10.00;58.10;;;;;;10356894;28;20037;-80
2022/04/17 15:05:29;;;;;;;4.80;2.87;;;9.80;59.40;;;;;;10358236;28;20041;-81
2022/04/17 15:10:30;;;;;;;4.67;3.40;;;9.80;60.00;;;;;;10396164;28;20084;-81
2022/04/17 15:15:31;;;;;;;5.60;3.53;;;9.70;59.50;;;;;;10406224;28;20029;-82
2022/04/17 15:20:31;;;;;;;5.80;2.90;;;9.60;59.30;;;;;;10388906;28;20025;-82
2022/04/17 15:25:32;;;;;;;3.60;2.60;;;9.70;60.20;;;;;;10407543;28;20546;-81
2022/04/17 15:30:33;;;;;;;4.20;2.73;;;9.90;58.20;;;;;;10402475;28;20121;-80
2022/04/17 15:35:34;;;;;;;5.07;3.30;;;9.90;60.40;;;;;;10386432;28;20586;-81
2022/04/17 15:40:36;;;;;;;7.13;3.37;;;9.90;60.50;;;;;;10403529;28;20079;-79
2022/04/17 15:50:56;;;;;;;5.17;2.87;;;9.70;60.60;;;;;;10412472;28;20050;-81
2022/04/17 15:55:56;;;;;;;4.10;2.73;;;9.70;60.30;;;;;;10413738;28;20033;-81
2022/04/17 16:00:57;;;;;;;5.97;3.60;;;9.60;60.40;;;;;;10413154;28;20038;-81
2022/04/17 16:05:58;;;;;;;6.27;2.93;;;9.50;59.70;;;;;;10412261;28;20608;-81
2022/04/17 16:10:59;;;;;;;7.77;3.37;;;9.50;60.80;;;;;;10412745;28;20049;-81
2022/04/17 16:15:59;;;;;;;6.03;3.47;;;9.60;60.80;;;;;;10413069;28;20029;-80
2022/04/17 16:21:00;;;;;;;5.40;3.30;;;9.60;60.60;;;;;;10352124;28;20084;-80
2022/04/17 16:26:01;;;;;;;7.33;3.33;;;9.60;61.60;;;;;;10350534;28;20052;-81
2022/04/17 16:31:02;;;;;;;8.40;3.57;;;9.60;62.10;;;;;;10394352;28;20033;-80
2022/04/17 16:36:04;;;;;;;5.27;3.10;;;9.70;61.00;;;;;;10394834;28;20022;-82
2022/04/17 16:41:06;;;;;;;4.87;3.20;;;9.80;60.90;;;;;;10396267;28;20030;-80
2022/04/17 16:46:07;;;;;;;5.33;3.60;;;9.80;61.00;;;;;;10402842;28;20041;-81
2022/04/17 16:51:08;;;;;;;5.10;3.03;;;9.70;60.90;;;;;;10395860;28;20037;-82
2022/04/17 16:56:09;;;;;;;5.93;3.27;;;9.50;60.60;;;;;;10409571;28;20535;-81
2022/04/17 17:01:11;;;;;;;4.20;2.77;;;9.40;61.80;;;;;;10403366;28;20080;-82
2022/04/17 17:06:12;;;;;;;4.73;3.60;;;9.30;61.90;;;;;;10393995;28;20022;-82
2022/04/17 17:11:12;;;;;;;4.53;3.00;;;9.20;63.40;;;;;;10406144;28;20111;-81
2022/04/17 17:16:13;;;;;;;5.37;3.20;;;9.00;63.50;;;;;;10410805;28;20025;-81
2022/04/17 17:21:14;;;;;;;6.40;3.83;;;8.90;62.90;;;;;;10408504;28;20037;-80
2022/04/17 17:26:15;;;;;;;7.70;4.13;;;8.70;64.00;;;;;;10409975;28;20457;-81
2022/04/17 17:31:15;;;;;;;7.53;3.90;;;8.40;64.40;;;;;;10401540;28;20053;-82
2022/04/17 17:36:16;;;;;;;9.30;3.90;;;8.20;67.10;;;;;;10409716;28;20370;-80
2022/04/17 17:41:17;;;;;;;11.67;4.80;;;7.80;69.70;;;;;;10406996;28;20389;-80
2022/04/17 17:46:18;;;;;;;10.77;5.03;;;7.30;71.10;;;;;;10409535;28;20052;-80
2022/04/17 17:51:22;;;;;;;17.00;6.03;;;6.90;72.10;;;;;;10389119;28;20037;-83
2022/04/17 17:56:23;;;;;;;19.17;7.43;;;6.70;72.70;;;;;;10409248;28;20191;-80
2022/04/17 18:01:23;;;;;;;16.97;6.90;;;6.40;74.40;;;;;;10407195;28;20075;-79
2022/04/17 18:06:24;;;;;;;16.37;7.23;;;6.30;75.10;;;;;;10408072;28;20026;-81
2022/04/17 18:16:44;;;;;;;14.20;6.13;;;6.00;76.80;;;;;;10407795;28;20041;-80
2022/04/17 18:21:46;;;;;;;11.23;5.27;;;6.00;77.00;;;;;;10394082;28;20444;-80
2022/04/17 18:26:46;;;;;;;12.37;6.67;;;5.90;77.70;;;;;;10407879;28;20500;-80
2022/04/17 18:32:15;;;;;;;16.63;7.53;;;5.90;77.80;;;;;;10392202;28;20050;-80
2022/04/17 18:37:16;;;;;;;19.73;9.27;;;6.00;78.30;;;;;;10395830;28;20029;-80
2022/04/17 18:42:17;;;;;;;21.07;10.00;;;6.10;77.80;;;;;;10380276;28;20473;-81
2022/04/17 18:47:17;;;;;;;23.20;11.13;;;6.10;78.30;;;;;;10407259;28;20392;-81
2022/04/17 18:52:18;;;;;;;19.47;9.03;;;6.10;78.30;;;;;;10407255;28;20090;-80
2022/04/17 18:57:19;;;;;;;18.37;8.53;;;6.10;78.40;;;;;;10407401;28;20040;-83
2022/04/17 19:02:19;;;;;;;18.00;9.33;;;6.20;79.30;;;;;;10382212;28;20040;-82
2022/04/17 19:07:20;;;;;;;25.77;10.90;;;6.20;79.50;;;;;;10407356;28;20099;-81
2022/04/17 19:17:40;;;;;;;27.30;13.50;;;6.20;79.50;;;;;;10408570;28;20034;-81
2022/04/17 19:22:41;;;;;;;34.00;16.20;;;6.20;79.10;;;;;;10415649;28;20033;-81
2022/04/17 19:27:42;;;;;;;35.80;16.17;;;6.10;78.80;;;;;;10408165;28;20025;-81
2022/04/17 19:38:01;;;;;;;38.83;16.33;;;6.00;78.90;;;;;;10346418;28;20390;-80
2022/04/17 19:43:02;;;;;;;32.37;14.90;;;5.90;78.60;;;;;;10395923;28;20022;-80
2022/04/17 19:48:03;;;;;;;28.23;13.63;;;5.90;78.80;;;;;;10382758;28;20445;-82
2022/04/17 19:53:04;;;;;;;34.13;14.23;;;5.90;78.70;;;;;;10392716;28;20044;-79
2022/04/17 19:58:04;;;;;;;37.03;17.60;;;5.80;79.30;;;;;;10374767;28;20026;-80
2022/04/17 20:03:06;;;;;;;40.60;19.20;;;5.70;79.70;;;;;;10401227;28;20041;-82
2022/04/17 20:08:06;;;;;;;33.53;16.33;;;5.60;79.40;;;;;;10396318;28;20045;-83
2022/04/17 20:13:08;;;;;;;36.00;17.17;;;5.40;80.00;;;;;;10365775;28;20026;-84
2022/04/17 20:18:09;;;;;;;40.83;18.10;;;5.50;80.40;;;;;;10377268;28;20025;-81
2022/04/17 20:23:10;;;;;;;41.93;18.13;;;5.50;79.60;;;;;;10381921;28;20022;-80
2022/04/17 20:28:11;;;;;;;35.93;15.97;;;5.50;80.70;;;;;;10380697;28;20029;-82
2022/04/17 20:33:12;;;;;;;43.87;19.43;;;5.50;80.50;;;;;;10379195;28;20049;-81
2022/04/17 20:38:13;;;;;;;41.90;18.43;;;5.60;79.50;;;;;;10379786;28;20044;-82
2022/04/17 20:53:52;;;;;;;38.57;18.33;;;5.60;79.50;;;;;;10387358;28;20034;-80
2022/04/17 20:58:54;;;;;;;42.27;19.80;;;5.50;80.50;;;;;;10388817;28;20029;-81
2022/04/17 21:03:55;;;;;;;47.30;22.03;;;5.30;81.60;;;;;;10376035;28;20521;-80
2022/04/17 21:08:56;;;;;;;54.87;24.60;;;5.10;83.70;;;;;;10367155;28;20034;-80
2022/04/17 21:13:57;;;;;;;61.53;27.27;;;4.90;84.80;;;;;;10367554;28;20393;-80
2022/04/17 21:18:57;;;;;;;65.40;28.97;;;4.70;85.70;;;;;;10350817;28;20105;-80
2022/04/17 21:23:58;;;;;;;60.67;27.00;;;4.50;86.90;;;;;;10362620;28;20470;-81
2022/04/17 21:28:58;;;;;;;61.77;26.30;;;4.40;88.80;;;;;;10369589;28;20037;-81
2022/04/17 21:33:59;;;;;;;50.07;21.40;;;4.20;89.80;;;;;;10375999;28;20045;-81
2022/04/17 21:39:00;;;;;;;34.10;15.93;;;4.20;90.40;;;;;;10378979;28;20033;-81
2022/04/17 21:44:02;;;;;;;39.73;16.50;;;4.20;89.80;;;;;;10382414;28;20026;-81
2022/04/17 21:49:08;;;;;;;31.13;15.17;;;4.20;90.10;;;;;;10387993;28;20034;-81
2022/04/17 21:54:09;;;;;;;33.73;15.17;;;4.20;90.30;;;;;;10380588;28;20763;-81
2022/04/17 21:59:10;;;;;;;26.83;13.90;;;4.20;90.00;;;;;;10375875;28;20041;-81
2022/04/17 22:09:44;;;;;;;21.77;11.30;;;4.20;88.80;;;;;;10361480;28;20080;-82
2022/04/17 22:14:44;;;;;;;22.63;10.53;;;4.20;87.70;;;;;;10368789;28;20706;-81
2022/04/17 22:19:45;;;;;;;20.47;9.60;;;4.10;86.90;;;;;;10388626;28;20396;-81
2022/04/17 22:24:49;;;;;;;18.60;8.70;;;4.00;87.00;;;;;;10368109;28;20037;-81
2022/04/17 22:29:49;;;;;;;18.23;7.17;;;4.00;86.90;;;;;;10392076;28;20045;-81
2022/04/17 22:34:50;;;;;;;13.07;7.50;;;3.90;86.20;;;;;;10407453;28;20057;-81
2022/04/17 22:39:51;;;;;;;14.77;6.93;;;3.90;85.90;;;;;;10408215;28;20041;-82
2022/04/17 22:44:52;;;;;;;13.07;7.13;;;3.80;86.10;;;;;;10371230;28;20120;-81
2022/04/17 22:49:53;;;;;;;14.90;7.40;;;3.60;86.20;;;;;;10391390;28;20045;-82
2022/04/17 22:54:54;;;;;;;16.67;7.10;;;3.70;85.30;;;;;;10367957;28;20037;-81
2022/04/17 22:59:54;;;;;;;14.80;6.90;;;3.70;84.50;;;;;;10391140;28;20052;-81
2022/04/17 23:04:55;;;;;;;14.00;7.07;;;3.70;84.30;;;;;;10398407;28;20036;-81
2022/04/17 23:09:56;;;;;;;16.07;7.93;;;3.70;84.20;;;;;;10397850;28;20049;-81
2022/04/17 23:14:56;;;;;;;21.30;9.83;;;3.60;85.00;;;;;;10367394;28;20041;-81
2022/04/17 23:19:57;;;;;;;27.67;11.87;;;3.40;86.00;;;;;;10376814;28;20030;-81
2022/04/17 23:24:57;;;;;;;28.27;13.47;;;3.30;86.80;;;;;;10405587;28;20037;-80
2022/04/17 23:29:58;;;;;;;29.13;12.77;;;3.20;87.30;;;;;;10407310;28;20049;-80
2022/04/17 23:34:59;;;;;;;28.50;12.23;;;3.20;87.30;;;;;;10377707;28;20493;-81
2022/04/17 23:40:00;;;;;;;27.23;13.90;;;3.10;87.40;;;;;;10366527;28;20033;-80
2022/04/17 23:45:01;;;;;;;22.20;10.70;;;3.00;88.90;;;;;;10406489;28;20033;-81
2022/04/17 23:50:07;;;;;;;31.90;14.00;;;2.80;90.10;;;;;;10388522;28;20042;-81
2022/04/17 23:55:08;;;;;;;31.03;14.10;;;2.70;90.70;;;;;;10380543;28;20026;-82
